Pagrindinis puslapis
METAR-TAF:

METAR-TAF

Oro uostai :

Angulemas, Prancūzija

platuma: 45-43-46N, ilguma: 00-13-08E, Aukštis: 132 m

Dabartinis oras

Ataskaita buvo paskelbta 15 minutes, ne 22:30 UTC
Vėjas 8 kt iš Šiaurės Rytų
Temperatūra 6°C
Drėgmė 56%
Slėgis 1019 hPa
Matomumas 10 km arba daugiau
nėra debesų žemiau 1500 m ir nėra kamuolinių lietaus debesų

METAR: LFBU 302230Z AUTO 04008KT CAVOK 06/M02 Q1019

Laikas: 00:45 (22:45 UTC)


TAF: trūkstamas

Orai ataskaitas ir orų prognozės (METAR, TAF).

turimą stotys yra geltonos ir raudonos taškus žemėlapyje.

Perkelti pele per norėdami pamatyti stoties vardą.

Tada spustelėkite, norėdami matyti oro stebėjimo ir prognozės.

Norėdami pakeisti žemėlapį: spustelėkite ant žalios mygtukų su juodo kryžiaus žemyn,; žalią mygtuką su brūkšneliu, jei norite nutolinti; arba žalių rodyklių gretimoms žemėlapius.


METAR-TAF: